createdAt,value
2018-01-05T00:00:08.440Z,8.63
2018-01-05T00:02:35.904Z,12.07
2018-01-05T00:05:03.353Z,13.93
2018-01-05T00:07:30.822Z,13.13
2018-01-05T00:09:58.310Z,11.40
2018-01-05T00:12:26.010Z,12.83
2018-01-05T00:14:53.484Z,14.37
2018-01-05T00:17:20.933Z,13.73
2018-01-05T00:19:49.251Z,11.73
2018-01-05T00:22:16.751Z,9.70
2018-01-05T00:24:44.241Z,13.73
2018-01-05T00:27:11.724Z,10.50
2018-01-05T00:29:39.253Z,10.37
2018-01-05T00:32:06.777Z,9.67
2018-01-05T00:34:34.249Z,10.63
2018-01-05T00:37:01.714Z,15.37
2018-01-05T00:39:29.139Z,8.07
2018-01-05T00:41:56.573Z,10.90
2018-01-05T00:44:24.004Z,11.60
2018-01-05T00:46:51.452Z,10.47
2018-01-05T00:49:18.899Z,11.93
2018-01-05T00:51:46.356Z,13.67
2018-01-05T00:54:13.803Z,12.97
2018-01-05T00:56:41.244Z,13.27
2018-01-05T00:59:08.675Z,11.77
2018-01-05T01:01:36.134Z,14.60
2018-01-05T01:04:03.572Z,12.10
2018-01-05T01:06:31.000Z,14.47
2018-01-05T01:08:58.444Z,16.50
2018-01-05T01:11:25.961Z,11.23
2018-01-05T01:13:53.415Z,15.67
2018-01-05T01:16:20.839Z,15.60
2018-01-05T01:18:48.273Z,11.37
2018-01-05T01:21:15.773Z,18.83
2018-01-05T01:23:43.233Z,15.20
2018-01-05T01:26:10.699Z,13.00
2018-01-05T01:28:38.114Z,15.93
2018-01-05T01:31:06.724Z,15.27
2018-01-05T01:33:34.788Z,16.13
2018-01-05T01:36:02.237Z,15.67
2018-01-05T01:38:30.486Z,12.70
2018-01-05T01:40:57.932Z,19.10
2018-01-05T01:43:25.468Z,17.87
2018-01-05T01:45:52.893Z,15.63
2018-01-05T01:48:20.343Z,14.53
2018-01-05T01:50:47.759Z,14.90
2018-01-05T01:53:15.576Z,15.33
2018-01-05T01:55:43.136Z,16.23
2018-01-05T01:58:10.735Z,15.07
2018-01-05T02:00:38.250Z,10.47
2018-01-05T02:03:05.957Z,11.10
2018-01-05T02:05:33.399Z,14.23
2018-01-05T02:08:00.817Z,13.90
2018-01-05T02:10:29.278Z,10.57
2018-01-05T02:12:56.696Z,12.10
2018-01-05T02:15:24.694Z,14.37
2018-01-05T02:17:52.776Z,13.30
2018-01-05T02:20:20.284Z,11.07
2018-01-05T02:22:47.710Z,11.73
2018-01-05T02:25:15.128Z,13.77
2018-01-05T02:27:43.440Z,10.83
2018-01-05T02:30:10.877Z,11.30
2018-01-05T02:32:38.309Z,12.37
2018-01-05T02:35:05.769Z,12.03
2018-01-05T02:37:33.237Z,16.53
2018-01-05T02:40:00.729Z,12.47
2018-01-05T02:42:28.309Z,10.93
2018-01-05T02:44:55.745Z,10.97
2018-01-05T02:47:23.195Z,11.83
2018-01-05T02:49:50.631Z,16.60
2018-01-05T02:52:18.037Z,11.00
2018-01-05T02:54:45.507Z,13.80
2018-01-05T02:57:12.936Z,15.23
2018-01-05T02:59:40.374Z,13.07
2018-01-05T03:02:07.898Z,11.70
2018-01-05T03:04:35.313Z,9.13
2018-01-05T03:07:02.752Z,10.50
2018-01-05T03:09:30.187Z,13.97
2018-01-05T03:11:57.623Z,10.57
2018-01-05T03:14:25.122Z,9.83
2018-01-05T03:16:52.553Z,12.03
2018-01-05T03:19:20.064Z,8.33
2018-01-05T03:21:47.526Z,10.33
2018-01-05T03:24:14.980Z,13.33
2018-01-05T03:26:42.404Z,11.57
2018-01-05T03:29:09.873Z,11.47
2018-01-05T03:31:37.324Z,10.23
2018-01-05T03:34:04.788Z,15.07
2018-01-05T03:36:32.244Z,10.07
2018-01-05T03:38:59.707Z,12.80
2018-01-05T03:41:27.185Z,9.93
2018-01-05T03:43:54.619Z,10.23
2018-01-05T03:46:22.055Z,11.83
2018-01-05T03:48:49.535Z,9.57
2018-01-05T03:51:16.970Z,9.67
2018-01-05T03:53:44.408Z,11.57
2018-01-05T03:56:12.255Z,7.67
2018-01-05T03:58:39.704Z,9.43
2018-01-05T04:01:07.201Z,7.60
2018-01-05T04:03:34.623Z,8.10
2018-01-05T04:06:02.040Z,8.77
2018-01-05T04:08:29.526Z,6.63
2018-01-05T04:10:56.997Z,9.97
2018-01-05T04:13:24.443Z,10.87
2018-01-05T04:15:52.432Z,10.97
2018-01-05T04:18:19.889Z,9.70
2018-01-05T04:20:47.376Z,12.33
2018-01-05T04:23:14.836Z,12.73
2018-01-05T04:25:42.264Z,11.87
2018-01-05T04:28:10.700Z,8.43
2018-01-05T04:30:38.139Z,10.77
2018-01-05T04:33:05.581Z,11.17
2018-01-05T04:35:33.019Z,9.80
2018-01-05T04:38:00.454Z,8.53
2018-01-05T04:40:27.925Z,12.33
2018-01-05T04:42:55.343Z,14.83
2018-01-05T04:45:22.786Z,9.03
2018-01-05T04:47:50.229Z,9.37
2018-01-05T04:50:17.666Z,14.40
2018-01-05T04:52:45.091Z,11.70
2018-01-05T04:55:12.554Z,11.70
2018-01-05T04:57:39.965Z,9.67
2018-01-05T05:00:07.495Z,13.13
2018-01-05T05:02:34.956Z,8.93
2018-01-05T05:05:02.441Z,12.00
2018-01-05T05:07:29.895Z,10.63
2018-01-05T05:09:57.362Z,10.77
2018-01-05T05:12:24.812Z,13.17
2018-01-05T05:14:52.270Z,10.20
2018-01-05T05:17:19.714Z,11.77
2018-01-05T05:19:47.934Z,7.83
2018-01-05T05:22:15.386Z,11.90
2018-01-05T05:24:42.848Z,10.93
2018-01-05T05:27:10.264Z,9.73
2018-01-05T05:29:37.731Z,11.20
2018-01-05T05:32:06.171Z,15.13
2018-01-05T05:34:33.603Z,8.40
2018-01-05T05:37:01.569Z,11.33
2018-01-05T05:39:29.908Z,18.43
2018-01-05T05:41:57.395Z,11.40
2018-01-05T05:44:24.865Z,8.47
2018-01-05T05:46:52.313Z,13.30
2018-01-05T05:49:19.745Z,12.70
2018-01-05T05:51:47.211Z,7.93
2018-01-05T05:54:14.673Z,11.57
2018-01-05T05:56:42.131Z,11.00
2018-01-05T05:59:09.541Z,9.70
2018-01-05T06:01:37.321Z,13.67
2018-01-05T06:04:04.810Z,8.97
2018-01-05T06:06:32.303Z,14.73
2018-01-05T06:08:59.753Z,11.53
2018-01-05T06:11:27.240Z,11.33
2018-01-05T06:13:54.681Z,10.70
2018-01-05T06:16:22.183Z,12.47
2018-01-05T06:18:49.616Z,10.57
2018-01-05T06:21:17.066Z,12.40
2018-01-05T06:23:44.518Z,15.53
2018-01-05T06:26:11.978Z,15.57
2018-01-05T06:28:39.424Z,13.50
2018-01-05T06:31:06.861Z,12.77
2018-01-05T06:33:34.349Z,16.33
2018-01-05T06:36:01.828Z,14.17
2018-01-05T06:38:29.277Z,10.13
2018-01-05T06:40:56.729Z,13.87
2018-01-05T06:43:24.169Z,10.87
2018-01-05T06:45:51.599Z,12.60
2018-01-05T06:48:21.799Z,11.23
2018-01-05T06:50:49.374Z,15.63
2018-01-05T06:53:16.952Z,13.57
2018-01-05T06:55:44.413Z,11.30
2018-01-05T06:58:11.900Z,10.97
2018-01-05T07:00:39.400Z,9.50
2018-01-05T07:03:06.842Z,8.97
2018-01-05T07:05:34.296Z,14.53
2018-01-05T07:08:01.718Z,12.20
2018-01-05T07:10:29.228Z,11.57
2018-01-05T07:12:56.693Z,10.77
2018-01-05T07:15:24.129Z,10.83
2018-01-05T07:17:51.579Z,14.67
2018-01-05T07:20:19.090Z,12.80
2018-01-05T07:22:46.606Z,11.77
2018-01-05T07:25:14.016Z,13.87
2018-01-05T07:27:41.465Z,11.67
2018-01-05T07:30:08.899Z,17.80
2018-01-05T07:32:36.399Z,11.20
2018-01-05T07:35:03.950Z,12.73
2018-01-05T07:37:31.465Z,13.90
2018-01-05T07:39:58.986Z,14.33
2018-01-05T07:42:26.448Z,12.67
2018-01-05T07:44:53.852Z,12.67
2018-01-05T07:47:21.288Z,11.67
2018-01-05T07:49:48.747Z,18.10
2018-01-05T07:52:16.222Z,10.23
2018-01-05T07:54:43.653Z,14.27
2018-01-05T07:57:11.089Z,11.40
2018-01-05T07:59:38.912Z,14.87
2018-01-05T08:02:06.353Z,10.13
2018-01-05T08:04:33.859Z,10.77
2018-01-05T08:07:01.392Z,12.43
2018-01-05T08:09:28.836Z,13.07
2018-01-05T08:11:56.389Z,16.10
2018-01-05T08:14:23.871Z,11.80
2018-01-05T08:16:51.322Z,12.23
2018-01-05T08:19:18.887Z,13.03
2018-01-05T08:21:46.343Z,17.87
2018-01-05T08:24:13.804Z,13.77
2018-01-05T08:26:41.250Z,20.53
2018-01-05T08:29:08.715Z,10.13
2018-01-05T08:31:36.193Z,9.53
2018-01-05T08:34:03.708Z,11.37
2018-01-05T08:36:31.187Z,14.87
2018-01-05T08:38:58.653Z,10.87
2018-01-05T08:41:26.109Z,12.30
2018-01-05T08:43:53.604Z,10.80
2018-01-05T08:46:21.067Z,10.90
2018-01-05T08:48:48.553Z,11.77
2018-01-05T08:51:16.116Z,10.30
2018-01-05T08:53:43.575Z,7.00
2018-01-05T08:56:11.361Z,10.30
2018-01-05T08:58:38.857Z,11.37
2018-01-05T09:01:06.307Z,11.87
2018-01-05T09:03:33.739Z,11.17
2018-01-05T09:06:01.173Z,8.30
2018-01-05T09:08:28.657Z,7.50
2018-01-05T09:10:56.085Z,10.20
2018-01-05T09:13:23.540Z,9.43
2018-01-05T09:15:51.045Z,7.10
2018-01-05T09:18:18.472Z,8.63
2018-01-05T09:20:45.938Z,6.50
2018-01-05T09:23:13.361Z,7.10
2018-01-05T09:25:40.824Z,6.57
2018-01-05T09:28:08.341Z,6.97
2018-01-05T09:30:35.832Z,6.70
2018-01-05T09:33:03.284Z,6.40
2018-01-05T09:35:31.003Z,5.60
2018-01-05T09:37:58.433Z,3.60
2018-01-05T09:40:25.857Z,5.53
2018-01-05T09:42:53.351Z,4.63
2018-01-05T09:45:20.803Z,7.10
2018-01-05T09:47:48.299Z,4.63
2018-01-05T09:50:15.730Z,7.60
2018-01-05T09:52:43.474Z,7.27
2018-01-05T09:55:10.911Z,6.67
2018-01-05T09:57:38.382Z,6.37
2018-01-05T10:00:05.888Z,6.43
2018-01-05T10:02:33.401Z,6.90
2018-01-05T10:05:00.847Z,8.20
2018-01-05T10:07:28.360Z,8.00
2018-01-05T10:09:56.144Z,8.73
2018-01-05T10:12:23.633Z,8.17
2018-01-05T10:14:51.138Z,8.73
2018-01-05T10:17:18.582Z,10.17
2018-01-05T10:19:46.008Z,6.43
2018-01-05T10:22:13.504Z,10.63
2018-01-05T10:24:40.956Z,6.93
2018-01-05T10:27:08.440Z,8.43
2018-01-05T10:29:35.948Z,8.47
2018-01-05T10:32:03.663Z,8.20
2018-01-05T10:34:31.171Z,9.20
2018-01-05T10:36:58.686Z,9.43
2018-01-05T10:39:26.174Z,9.30
2018-01-05T10:41:53.644Z,8.77
2018-01-05T10:44:22.179Z,8.20
2018-01-05T10:46:50.339Z,9.03
2018-01-05T10:49:18.482Z,8.83
2018-01-05T10:51:46.004Z,9.77
2018-01-05T10:54:13.675Z,8.20
2018-01-05T10:56:41.208Z,7.53
2018-01-05T10:59:08.673Z,5.43
2018-01-05T11:01:36.332Z,9.50
2018-01-05T11:04:03.757Z,8.10
2018-01-05T11:06:31.488Z,6.10
2018-01-05T11:08:59.917Z,6.60
2018-01-05T11:11:27.350Z,6.50
2018-01-05T11:13:54.772Z,8.87
2018-01-05T11:16:22.227Z,6.97
2018-01-05T11:18:49.656Z,5.90
2018-01-05T11:21:17.124Z,5.63
2018-01-05T11:23:45.553Z,6.73
2018-01-05T11:26:12.966Z,7.60
2018-01-05T11:28:40.475Z,4.53
2018-01-05T11:31:07.940Z,6.17
2018-01-05T11:33:35.380Z,6.43
2018-01-05T11:36:02.839Z,8.13
2018-01-05T11:38:30.373Z,6.70
2018-01-05T11:40:58.447Z,5.13
2018-01-05T11:43:25.899Z,4.60
2018-01-05T11:45:53.412Z,2.63
2018-01-05T11:48:21.256Z,5.57
2018-01-05T11:50:48.774Z,4.50
2018-01-05T11:53:16.238Z,5.77
2018-01-05T11:55:43.719Z,2.60
2018-01-05T11:58:11.161Z,5.53
2018-01-05T12:00:38.650Z,4.80
2018-01-05T12:03:06.102Z,4.13
2018-01-05T12:05:33.632Z,2.73
2018-01-05T12:08:01.150Z,3.47
2018-01-05T12:10:28.702Z,2.57
2018-01-05T12:12:56.298Z,3.93
2018-01-05T12:15:24.200Z,3.27
2018-01-05T12:17:51.731Z,5.73
2018-01-05T12:20:19.318Z,5.57
2018-01-05T12:22:46.951Z,2.90
2018-01-05T12:25:14.581Z,4.37
2018-01-05T12:27:42.184Z,4.20
2018-01-05T12:30:10.066Z,4.37
2018-01-05T12:32:37.538Z,2.73
2018-01-05T12:35:05.053Z,4.57
2018-01-05T12:37:32.547Z,5.30
2018-01-05T12:40:00.028Z,4.13
2018-01-05T12:42:27.509Z,2.17
2018-01-05T12:44:54.982Z,5.00
2018-01-05T12:47:22.509Z,5.77
2018-01-05T12:49:49.994Z,4.73
2018-01-05T12:52:17.451Z,3.40
2018-01-05T12:54:45.611Z,3.33
2018-01-05T12:57:13.063Z,2.77
2018-01-05T12:59:40.550Z,5.17
2018-01-05T13:02:08.154Z,5.13
2018-01-05T13:04:36.010Z,4.43
2018-01-05T13:07:04.427Z,3.50
2018-01-05T13:09:31.900Z,5.90
2018-01-05T13:11:59.353Z,4.57
2018-01-05T13:14:26.810Z,3.27
2018-01-05T13:16:54.342Z,3.80
2018-01-05T13:19:21.789Z,6.13
2018-01-05T13:21:49.243Z,4.57
2018-01-05T13:24:16.780Z,5.80
2018-01-05T13:26:44.466Z,5.77
2018-01-05T13:29:12.246Z,5.37
2018-01-05T13:31:40.013Z,4.23
2018-01-05T13:34:08.354Z,4.03
2018-01-05T13:36:35.879Z,4.57
2018-01-05T13:39:03.484Z,7.37
2018-01-05T13:41:31.033Z,5.00
2018-01-05T13:43:58.588Z,5.53
2018-01-05T13:46:26.024Z,3.47
2018-01-05T13:48:53.550Z,3.37
2018-01-05T13:51:21.303Z,4.60
2018-01-05T13:53:48.781Z,5.77
2018-01-05T13:56:16.244Z,6.27
2018-01-05T13:58:43.752Z,6.27
2018-01-05T14:01:11.206Z,4.77
2018-01-05T14:03:39.572Z,6.63
2018-01-05T14:06:07.000Z,5.40
2018-01-05T14:08:38.081Z,6.27
2018-01-05T14:11:05.596Z,4.77
2018-01-05T14:13:33.091Z,6.80
2018-01-05T14:16:00.529Z,6.07
2018-01-05T14:18:28.358Z,9.33
2018-01-05T14:20:55.787Z,5.93
2018-01-05T14:23:23.219Z,4.17
2018-01-05T14:25:51.503Z,6.70
2018-01-05T14:28:19.000Z,6.53
2018-01-05T14:30:46.450Z,3.57
2018-01-05T14:33:13.903Z,5.30
2018-01-05T14:35:41.349Z,6.27
2018-01-05T14:38:08.834Z,9.70
2018-01-05T14:40:36.634Z,6.33
2018-01-05T14:43:04.209Z,6.37
2018-01-05T14:45:31.705Z,7.27
2018-01-05T14:47:59.216Z,5.67
2018-01-05T14:50:26.705Z,3.80
2018-01-05T14:52:54.169Z,6.43
2018-01-05T14:55:21.678Z,8.50
2018-01-05T14:57:49.424Z,5.23
2018-01-05T15:00:16.864Z,5.80
2018-01-05T15:02:44.334Z,7.10
2018-01-05T15:05:11.782Z,6.57
2018-01-05T15:07:39.316Z,5.30
2018-01-05T15:10:06.995Z,8.00
2018-01-05T15:12:34.525Z,6.43
2018-01-05T15:15:01.996Z,6.03
2018-01-05T15:17:29.464Z,7.80
2018-01-05T15:19:56.933Z,8.63
2018-01-05T15:22:24.464Z,7.97
2018-01-05T15:24:51.906Z,6.60
2018-01-05T15:27:19.530Z,8.50
2018-01-05T15:29:46.993Z,7.87
2018-01-05T15:32:14.710Z,6.90
2018-01-05T15:34:43.532Z,5.77
2018-01-05T15:37:14.719Z,7.83
2018-01-05T15:39:42.221Z,5.27
2018-01-05T15:42:09.770Z,9.37
2018-01-05T15:44:37.320Z,7.20
2018-01-05T15:47:04.965Z,5.87
2018-01-05T15:49:32.451Z,6.97
2018-01-05T15:51:59.979Z,4.40
2018-01-05T15:54:27.486Z,5.30
2018-01-05T15:56:54.998Z,6.40
2018-01-05T15:59:22.455Z,5.07
2018-01-05T16:01:49.972Z,4.63
2018-01-05T16:04:17.482Z,5.00
2018-01-05T16:06:45.024Z,4.97
2018-01-05T16:09:12.585Z,6.93
2018-01-05T16:11:40.362Z,5.30
2018-01-05T16:14:07.839Z,4.23
2018-01-05T16:16:35.431Z,6.20
2018-01-05T16:19:02.946Z,2.60
2018-01-05T16:21:30.500Z,4.27
2018-01-05T16:23:58.036Z,5.73
2018-01-05T16:26:25.718Z,4.30
2018-01-05T16:28:53.253Z,8.73
2018-01-05T16:31:20.887Z,6.00
2018-01-05T16:33:48.366Z,3.37
2018-01-05T16:36:15.823Z,3.90
2018-01-05T16:38:43.369Z,5.10
2018-01-05T16:41:10.848Z,6.30
2018-01-05T16:43:38.324Z,5.80
2018-01-05T16:46:06.653Z,6.83
2018-01-05T16:48:34.275Z,15.30
2018-01-05T16:51:01.731Z,5.13
2018-01-05T16:53:29.193Z,5.30
2018-01-05T16:55:56.685Z,7.13
2018-01-05T16:58:25.049Z,5.60
2018-01-05T17:00:52.565Z,5.10
2018-01-05T17:03:20.032Z,5.17
2018-01-05T17:05:47.500Z,4.77
2018-01-05T17:08:15.045Z,5.20
2018-01-05T17:10:42.521Z,7.17
2018-01-05T17:13:10.069Z,6.80
2018-01-05T17:15:37.513Z,7.20
2018-01-05T17:18:05.006Z,10.90
2018-01-05T17:20:32.455Z,6.63
2018-01-05T17:22:59.924Z,3.53
2018-01-05T17:25:28.029Z,4.53
2018-01-05T17:27:55.460Z,5.87
2018-01-05T17:30:22.936Z,6.17
2018-01-05T17:32:50.422Z,7.83
2018-01-05T17:35:17.890Z,7.97
2018-01-05T17:37:45.540Z,5.33
2018-01-05T17:40:12.989Z,4.03
2018-01-05T17:42:40.534Z,6.10
2018-01-05T17:45:08.002Z,5.33
2018-01-05T17:47:35.921Z,3.50
2018-01-05T17:50:03.477Z,6.03
2018-01-05T17:52:31.046Z,4.63
2018-01-05T17:54:58.504Z,3.60
2018-01-05T17:57:25.936Z,5.37
2018-01-05T17:59:53.625Z,3.50
2018-01-05T18:02:21.105Z,4.30
2018-01-05T18:04:48.643Z,3.90
2018-01-05T18:07:16.127Z,7.60
2018-01-05T18:09:43.608Z,3.70
2018-01-05T18:12:11.137Z,8.00
2018-01-05T18:14:38.655Z,4.37
2018-01-05T18:17:06.235Z,7.43
2018-01-05T18:19:33.746Z,7.07
2018-01-05T18:22:01.366Z,6.33
2018-01-05T18:24:28.839Z,7.67
2018-01-05T18:26:56.345Z,3.80
2018-01-05T18:29:23.850Z,6.43
2018-01-05T18:31:51.335Z,3.77
2018-01-05T18:34:18.909Z,7.80
2018-01-05T18:36:52.938Z,6.03
2018-01-05T18:39:20.432Z,6.47
2018-01-05T18:41:47.893Z,6.53
2018-01-05T18:44:15.395Z,10.53
2018-01-05T18:46:43.258Z,4.33
2018-01-05T18:49:10.757Z,6.93
2018-01-05T18:51:38.730Z,7.87
2018-01-05T18:54:06.197Z,3.60
2018-01-05T18:56:33.689Z,7.97
2018-01-05T18:59:01.147Z,5.60
2018-01-05T19:01:38.569Z,5.40
2018-01-05T19:04:06.009Z,4.20
2018-01-05T19:06:33.514Z,3.93
2018-01-05T19:09:01.061Z,5.27
2018-01-05T19:11:28.510Z,6.00
2018-01-05T19:13:55.997Z,4.77
2018-01-05T19:16:23.533Z,5.17
2018-01-05T19:18:51.004Z,6.30
2018-01-05T19:21:18.498Z,6.97
2018-01-05T19:23:45.956Z,8.00
2018-01-05T19:26:13.486Z,3.80
2018-01-05T19:28:41.114Z,5.77
2018-01-05T19:31:08.610Z,4.60
2018-01-05T19:33:36.490Z,6.20
2018-01-05T19:36:03.936Z,4.80
2018-01-05T19:38:31.438Z,7.20
2018-01-05T19:40:58.893Z,5.10
2018-01-05T19:43:26.382Z,5.97
2018-01-05T19:45:53.882Z,4.30
2018-01-05T19:48:21.444Z,5.07
2018-01-05T19:50:48.948Z,9.83
2018-01-05T19:53:16.440Z,5.90
2018-01-05T19:55:43.929Z,5.20
2018-01-05T19:58:11.452Z,5.40
2018-01-05T20:00:38.937Z,3.40
2018-01-05T20:03:06.647Z,4.37
2018-01-05T20:05:34.160Z,6.00
2018-01-05T20:08:01.774Z,6.77
2018-01-05T20:10:29.278Z,5.13
2018-01-05T20:12:56.775Z,4.37
2018-01-05T20:15:24.252Z,4.93
2018-01-05T20:17:51.732Z,6.50
2018-01-05T20:20:19.185Z,5.57
2018-01-05T20:22:46.668Z,4.13
2018-01-05T20:25:14.196Z,4.03
2018-01-05T20:27:41.722Z,6.47
2018-01-05T20:30:09.173Z,4.87
2018-01-05T20:32:36.639Z,6.77
2018-01-05T20:35:04.092Z,5.60
2018-01-05T20:37:31.709Z,6.10
2018-01-05T20:39:59.173Z,6.47
2018-01-05T20:42:26.658Z,6.50
2018-01-05T20:44:54.943Z,7.10
2018-01-05T20:47:23.408Z,4.83
2018-01-05T20:49:50.992Z,8.77
2018-01-05T20:52:18.462Z,4.60
2018-01-05T20:54:45.959Z,5.27
2018-01-05T20:57:13.458Z,4.73
2018-01-05T20:59:40.982Z,6.27
2018-01-05T21:02:08.535Z,5.33
2018-01-05T21:04:35.994Z,3.70
2018-01-05T21:07:03.478Z,4.60
2018-01-05T21:09:31.193Z,5.13
2018-01-05T21:11:58.747Z,3.30
2018-01-05T21:14:26.579Z,4.87
2018-01-05T21:16:54.112Z,6.73
2018-01-05T21:19:21.561Z,3.87
2018-01-05T21:21:49.084Z,4.63
2018-01-05T21:24:16.638Z,3.90
2018-01-05T21:26:44.149Z,4.70
2018-01-05T21:29:11.611Z,6.63
2018-01-05T21:31:39.073Z,4.47
2018-01-05T21:34:06.636Z,6.20
2018-01-05T21:36:34.846Z,7.80
2018-01-05T21:39:02.388Z,6.83
2018-01-05T21:41:29.906Z,7.17
2018-01-05T21:43:57.380Z,6.40
2018-01-05T21:46:24.865Z,4.60
2018-01-05T21:48:52.348Z,4.13
2018-01-05T21:51:19.973Z,5.93
2018-01-05T21:53:47.461Z,4.53
2018-01-05T21:56:14.977Z,4.20
2018-01-05T21:58:42.461Z,5.50
2018-01-05T22:01:09.994Z,3.43
2018-01-05T22:03:37.452Z,3.00
2018-01-05T22:06:04.990Z,3.90
2018-01-05T22:11:14.458Z,3.97
2018-01-05T22:13:41.917Z,3.10
2018-01-05T22:16:09.475Z,3.20
2018-01-05T22:18:37.018Z,4.57
2018-01-05T22:21:05.105Z,3.57
2018-01-05T22:23:32.585Z,3.77
2018-01-05T22:26:00.119Z,6.13
2018-01-05T22:28:27.576Z,3.20
2018-01-05T22:30:55.346Z,3.10
2018-01-05T22:33:22.789Z,3.00
2018-01-05T22:35:50.261Z,3.60
2018-01-05T22:38:17.751Z,3.23
2018-01-05T22:40:45.246Z,3.57
2018-01-05T22:43:12.700Z,4.23
2018-01-05T22:45:40.217Z,3.90
2018-01-05T22:48:07.704Z,4.87
2018-01-05T22:50:35.223Z,4.00
2018-01-05T22:53:02.689Z,3.00
2018-01-05T22:55:30.240Z,4.73
2018-01-05T22:57:58.580Z,3.23
2018-01-05T23:00:26.040Z,3.77
2018-01-05T23:02:53.571Z,4.77
2018-01-05T23:05:21.031Z,3.23
2018-01-05T23:07:48.511Z,3.20
2018-01-05T23:10:15.951Z,4.00
2018-01-05T23:12:43.509Z,5.50
2018-01-05T23:15:11.016Z,2.80
2018-01-05T23:17:38.478Z,3.40
2018-01-05T23:20:05.959Z,2.77
2018-01-05T23:22:33.407Z,3.30
2018-01-05T23:25:00.891Z,3.90
2018-01-05T23:27:28.355Z,3.53
2018-01-05T23:29:55.804Z,3.83
2018-01-05T23:32:23.432Z,3.57
2018-01-05T23:34:50.879Z,4.53
2018-01-05T23:37:19.269Z,3.20
2018-01-05T23:39:46.705Z,4.37
2018-01-05T23:42:14.168Z,3.47
2018-01-05T23:44:41.603Z,3.40
2018-01-05T23:47:09.017Z,3.30
2018-01-05T23:49:36.467Z,3.80
2018-01-05T23:52:03.888Z,4.30
2018-01-05T23:54:31.341Z,6.03
2018-01-05T23:56:58.800Z,2.90
2018-01-05T23:59:26.256Z,3.37
